Urb Litheda Hts, Puerto Rico
Current Conditions -  °F | °C
As of 10:56 AM on Wednesday 26 Nov 2014 (Local Time) from TJSJ Reporting Station
Scattered Clouds Scattered Clouds  
Wind Chill: 84°   Ceiling: Unl
Heat Index: 91°   Visibility: 10mi
Dew Point: 74°   Wind: 17mph
Humidity: 72%   Direction: 60°ENE
Pressure: 30.05"   Gusts: NA
Location:  18.3754°N, 66.0577°W
Report Text: TJSJ 261456Z 06015KT 10SM FEW028 SCT035 29/23 A3005 RMK AO2 SLP175 T02890233 50005
Loading
Personal Weather Stations






























Interactive Weather Map New forecast layout! Learn more

10-Day Weather Forecast

Advertisements
Track Severe Weather on mobile